createdAt,value
2023-01-21T00:01:03.282Z,17.80
2023-01-21T00:03:29.972Z,17.77
2023-01-21T00:05:58.219Z,18.60
2023-01-21T00:08:25.876Z,16.93
2023-01-21T00:10:52.906Z,17.47
2023-01-21T00:13:19.550Z,18.40
2023-01-21T00:15:46.299Z,20.97
2023-01-21T00:18:13.024Z,20.40
2023-01-21T00:20:39.746Z,17.20
2023-01-21T00:23:06.467Z,19.73
2023-01-21T00:25:33.378Z,17.57
2023-01-21T00:28:00.203Z,17.77
2023-01-21T00:30:27.090Z,17.07
2023-01-21T00:32:53.884Z,18.67
2023-01-21T00:35:20.496Z,15.10
2023-01-21T00:37:47.207Z,15.10
2023-01-21T00:40:14.052Z,16.43
2023-01-21T00:42:40.832Z,16.33
2023-01-21T00:45:08.318Z,16.90
2023-01-21T00:47:34.975Z,16.67
2023-01-21T00:50:01.717Z,17.50
2023-01-21T00:52:28.372Z,16.57
2023-01-21T00:54:55.028Z,17.73
2023-01-21T00:57:21.739Z,16.93
2023-01-21T00:59:48.534Z,16.37
2023-01-21T01:02:15.142Z,16.83
2023-01-21T01:04:41.841Z,17.83
2023-01-21T01:07:08.539Z,17.03
2023-01-21T01:09:35.223Z,17.20
2023-01-21T01:12:01.889Z,16.53
2023-01-21T01:14:28.666Z,15.77
2023-01-21T01:16:55.347Z,15.80
2023-01-21T01:19:21.979Z,15.67
2023-01-21T01:21:48.646Z,14.90
2023-01-21T01:24:15.265Z,16.37
2023-01-21T01:26:42.345Z,14.53
2023-01-21T01:29:13.275Z,13.67
2023-01-21T01:31:40.320Z,12.70
2023-01-21T01:34:06.956Z,13.67
2023-01-21T01:36:33.574Z,13.23
2023-01-21T01:39:00.258Z,14.33
2023-01-21T01:41:29.835Z,13.97
2023-01-21T01:44:00.768Z,14.07
2023-01-21T01:46:33.677Z,13.97
2023-01-21T01:49:13.687Z,13.03
2023-01-21T01:51:51.203Z,13.23
2023-01-21T01:54:23.279Z,13.13
2023-01-21T01:56:53.944Z,13.67
2023-01-21T01:59:21.458Z,12.43
2023-01-21T02:01:48.478Z,13.27
2023-01-21T02:04:20.758Z,13.30
2023-01-21T02:06:48.820Z,11.97
2023-01-21T02:09:15.598Z,12.63
2023-01-21T02:11:42.286Z,13.33
2023-01-21T02:14:08.978Z,12.13
2023-01-21T02:17:00.202Z,10.87
2023-01-21T02:20:15.393Z,11.57
2023-01-21T02:23:01.064Z,10.57
2023-01-21T02:25:27.654Z,11.10
2023-01-21T02:28:20.481Z,11.10
2023-01-21T02:31:02.475Z,11.50
2023-01-21T02:34:10.943Z,12.23
2023-01-21T02:36:58.935Z,11.40
2023-01-21T02:39:40.755Z,11.47
2023-01-21T02:42:20.356Z,10.83
2023-01-21T02:45:27.093Z,11.83
2023-01-21T02:48:05.858Z,11.03
2023-01-21T02:50:40.775Z,11.90
2023-01-21T02:53:07.527Z,12.30
2023-01-21T02:55:38.529Z,11.97
2023-01-21T02:58:14.722Z,12.53
2023-01-21T03:01:15.352Z,13.20
2023-01-21T03:04:12.394Z,11.90
2023-01-21T03:06:49.988Z,11.77
2023-01-21T03:09:25.939Z,12.30
2023-01-21T03:12:16.188Z,11.47
2023-01-21T03:15:20.128Z,12.57
2023-01-21T03:17:57.566Z,12.43
2023-01-21T03:20:46.726Z,11.67
2023-01-21T03:23:21.328Z,11.83
2023-01-21T03:25:50.361Z,13.47
2023-01-21T03:28:26.332Z,14.13
2023-01-21T03:31:05.815Z,13.10
2023-01-21T03:33:37.601Z,13.00
2023-01-21T03:36:13.724Z,12.20
2023-01-21T03:38:45.132Z,11.07
2023-01-21T03:41:21.902Z,12.17
2023-01-21T03:43:48.952Z,11.57
2023-01-21T03:46:41.500Z,12.60
2023-01-21T03:49:34.716Z,12.43
2023-01-21T03:52:03.640Z,12.10
2023-01-21T03:54:31.434Z,11.83
2023-01-21T03:56:58.113Z,12.10
2023-01-21T03:59:24.785Z,13.57
2023-01-21T04:01:51.442Z,13.17
2023-01-21T04:04:18.458Z,13.30
2023-01-21T04:06:45.106Z,13.07
2023-01-21T04:09:11.974Z,13.90
2023-01-21T04:11:38.740Z,13.00
2023-01-21T04:14:05.392Z,13.37
2023-01-21T04:16:32.119Z,14.70
2023-01-21T04:18:58.794Z,13.73
2023-01-21T04:21:25.453Z,12.97
2023-01-21T04:23:52.181Z,13.47
2023-01-21T04:26:18.791Z,14.83
2023-01-21T04:28:45.380Z,14.27
2023-01-21T04:31:12.017Z,13.40
2023-01-21T04:33:38.762Z,14.57
2023-01-21T04:36:05.643Z,15.00
2023-01-21T04:38:32.270Z,14.70
2023-01-21T04:40:58.966Z,15.23
2023-01-21T04:43:25.677Z,15.53
2023-01-21T04:45:52.365Z,15.03
2023-01-21T04:48:18.990Z,16.20
2023-01-21T04:50:46.422Z,15.10
2023-01-21T04:53:13.220Z,15.97
2023-01-21T04:55:39.860Z,14.67
2023-01-21T04:58:06.429Z,16.20
2023-01-21T05:00:33.125Z,15.43
2023-01-21T05:02:59.763Z,16.27
2023-01-21T05:05:26.376Z,15.50
2023-01-21T05:07:54.083Z,15.67
2023-01-21T05:10:20.756Z,15.57
2023-01-21T05:12:48.378Z,15.40
2023-01-21T05:15:15.139Z,15.70
2023-01-21T05:17:42.196Z,14.97
2023-01-21T05:20:09.667Z,13.87
2023-01-21T05:22:36.373Z,14.00
2023-01-21T05:25:03.526Z,15.67
2023-01-21T05:27:30.190Z,14.80
2023-01-21T05:29:59.780Z,13.73
2023-01-21T05:32:26.464Z,14.63
2023-01-21T05:34:53.124Z,15.33
2023-01-21T05:37:19.789Z,15.70
2023-01-21T05:39:46.450Z,15.23
2023-01-21T05:42:13.072Z,15.90
2023-01-21T05:44:39.707Z,14.77
2023-01-21T05:47:08.633Z,14.13
2023-01-21T05:49:35.969Z,13.93
2023-01-21T05:52:02.638Z,15.57
2023-01-21T05:54:29.523Z,15.20
2023-01-21T05:56:56.143Z,15.40
2023-01-21T05:59:22.809Z,15.53
2023-01-21T06:01:49.451Z,13.93
2023-01-21T06:04:16.022Z,15.30
2023-01-21T06:06:42.660Z,14.73
2023-01-21T06:09:09.634Z,14.33
2023-01-21T06:11:36.251Z,14.97
2023-01-21T06:14:02.988Z,12.80
2023-01-21T06:16:29.626Z,16.23
2023-01-21T06:18:56.241Z,14.17
2023-01-21T06:21:22.881Z,14.23
2023-01-21T06:23:49.521Z,13.40
2023-01-21T06:26:16.174Z,14.30
2023-01-21T06:28:42.795Z,14.67
2023-01-21T06:31:09.573Z,13.97
2023-01-21T06:33:36.263Z,13.60
2023-01-21T06:36:02.907Z,13.63
2023-01-21T06:38:29.588Z,14.60
2023-01-21T06:40:56.237Z,15.73
2023-01-21T06:43:22.864Z,15.33
2023-01-21T06:45:49.488Z,16.33
2023-01-21T06:48:16.099Z,15.13
2023-01-21T06:50:43.191Z,13.63
2023-01-21T06:53:09.847Z,15.20
2023-01-21T06:55:36.527Z,15.10
2023-01-21T06:58:03.324Z,14.40
2023-01-21T07:00:30.122Z,14.20
2023-01-21T07:02:58.063Z,13.73
2023-01-21T07:05:24.747Z,15.60
2023-01-21T07:07:55.053Z,13.07
2023-01-21T07:10:22.637Z,13.07
2023-01-21T07:12:49.311Z,13.00
2023-01-21T07:15:16.724Z,14.23
2023-01-21T07:17:44.190Z,12.73
2023-01-21T07:20:12.555Z,14.70
2023-01-21T07:22:39.549Z,12.73
2023-01-21T07:25:06.872Z,13.53
2023-01-21T07:27:33.610Z,14.23
2023-01-21T07:30:00.629Z,12.37
2023-01-21T07:32:27.319Z,13.77
2023-01-21T07:34:54.059Z,12.80
2023-01-21T07:37:20.772Z,14.70
2023-01-21T07:39:47.410Z,14.03
2023-01-21T07:42:14.229Z,14.07
2023-01-21T07:44:40.873Z,14.77
2023-01-21T07:47:07.568Z,14.30
2023-01-21T07:49:34.280Z,14.47
2023-01-21T07:52:00.984Z,13.10
2023-01-21T07:54:27.721Z,13.97
2023-01-21T07:56:54.427Z,14.23
2023-01-21T07:59:21.515Z,12.00
2023-01-21T08:01:48.268Z,12.90
2023-01-21T08:04:15.139Z,13.13
2023-01-21T08:06:41.889Z,13.50
2023-01-21T08:09:09.917Z,14.47
2023-01-21T08:11:36.545Z,13.23
2023-01-21T08:14:03.280Z,13.57
2023-01-21T08:16:29.945Z,12.80
2023-01-21T08:18:56.603Z,13.73
2023-01-21T08:21:23.256Z,13.87
2023-01-21T08:23:49.918Z,14.13
2023-01-21T08:26:16.853Z,14.73
2023-01-21T08:28:43.589Z,11.90
2023-01-21T08:31:13.009Z,13.37
2023-01-21T08:33:40.662Z,13.30
2023-01-21T08:36:08.670Z,11.90
2023-01-21T08:38:35.398Z,11.33
2023-01-21T08:41:02.316Z,12.17
2023-01-21T08:43:28.978Z,12.03
2023-01-21T08:45:57.345Z,12.83
2023-01-21T08:48:24.328Z,14.23
2023-01-21T08:50:51.060Z,12.17
2023-01-21T08:53:17.818Z,9.47
2023-01-21T08:55:47.345Z,11.23
2023-01-21T08:58:14.022Z,12.50
2023-01-21T09:00:41.849Z,12.67
2023-01-21T09:03:08.732Z,12.83
2023-01-21T09:05:35.414Z,12.97
2023-01-21T09:08:02.403Z,12.90
2023-01-21T09:11:01.340Z,12.33
2023-01-21T09:13:38.165Z,10.57
2023-01-21T09:16:14.274Z,13.63
2023-01-21T09:18:41.950Z,12.53
2023-01-21T09:21:09.955Z,11.70
2023-01-21T09:23:38.063Z,13.20
2023-01-21T09:26:17.248Z,13.07
2023-01-21T09:28:45.974Z,12.30
2023-01-21T09:31:15.863Z,12.80
2023-01-21T09:33:47.711Z,12.00
2023-01-21T09:36:17.650Z,9.87
2023-01-21T09:38:45.626Z,12.97
2023-01-21T09:41:42.028Z,13.23
2023-01-21T09:44:30.947Z,11.20
2023-01-21T09:47:06.886Z,10.23
2023-01-21T09:49:48.350Z,12.57
2023-01-21T09:52:26.081Z,9.60
2023-01-21T09:54:53.442Z,13.60
2023-01-21T09:57:36.352Z,10.90
2023-01-21T10:00:40.296Z,12.43
2023-01-21T10:03:13.179Z,12.47
2023-01-21T10:05:54.947Z,12.10
2023-01-21T10:08:30.832Z,11.00
2023-01-21T10:11:27.631Z,11.23
2023-01-21T10:14:12.421Z,12.03
2023-01-21T10:16:57.303Z,11.63
2023-01-21T10:19:33.295Z,10.60
2023-01-21T10:22:05.583Z,11.53
2023-01-21T10:24:46.219Z,10.43
2023-01-21T10:27:19.644Z,9.60
2023-01-21T10:29:50.416Z,9.40
2023-01-21T10:32:22.354Z,9.10
2023-01-21T10:34:55.417Z,9.03
2023-01-21T10:37:34.972Z,5.20
2023-01-21T10:40:18.787Z,9.20
2023-01-21T10:43:00.887Z,8.37
2023-01-21T10:45:57.718Z,9.13
2023-01-21T10:48:45.485Z,6.37
2023-01-21T10:51:29.543Z,8.00
2023-01-21T10:54:16.549Z,8.00
2023-01-21T10:56:53.713Z,7.00
2023-01-21T10:59:28.774Z,7.97
2023-01-21T11:02:15.858Z,6.97
2023-01-21T11:04:42.569Z,7.80
2023-01-21T11:07:13.395Z,9.43
2023-01-21T11:09:43.643Z,8.63
2023-01-21T11:12:13.209Z,7.90
2023-01-21T11:14:39.968Z,6.77
2023-01-21T11:17:07.208Z,7.73
2023-01-21T11:19:34.139Z,8.00
2023-01-21T11:22:17.577Z,7.37
2023-01-21T11:24:50.085Z,6.80
2023-01-21T11:27:36.897Z,6.30
2023-01-21T11:30:12.999Z,7.30
2023-01-21T11:32:51.778Z,4.20
2023-01-21T11:35:22.985Z,6.00
2023-01-21T11:37:49.692Z,6.47
2023-01-21T11:40:25.552Z,5.97
2023-01-21T11:42:54.475Z,6.73
2023-01-21T11:45:28.157Z,5.23
2023-01-21T11:47:55.376Z,5.37
2023-01-21T11:50:29.151Z,6.67
2023-01-21T11:53:07.893Z,6.37
2023-01-21T11:55:42.051Z,4.77
2023-01-21T11:58:18.118Z,5.73
2023-01-21T12:00:47.887Z,6.30
2023-01-21T12:03:18.681Z,5.30
2023-01-21T12:05:49.461Z,5.17
2023-01-21T12:08:25.588Z,4.00
2023-01-21T12:10:55.864Z,5.80
2023-01-21T12:13:51.211Z,5.53
2023-01-21T12:16:51.699Z,5.50
2023-01-21T12:19:58.179Z,5.90
2023-01-21T12:22:45.617Z,4.63
2023-01-21T12:25:40.705Z,5.27
2023-01-21T12:28:17.171Z,4.73
2023-01-21T12:31:05.178Z,5.20
2023-01-21T12:33:31.870Z,3.50
2023-01-21T12:36:04.491Z,4.63
2023-01-21T12:38:38.632Z,5.27
2023-01-21T12:41:27.633Z,5.93
2023-01-21T12:44:06.336Z,5.87
2023-01-21T12:46:44.735Z,5.60
2023-01-21T12:49:35.022Z,5.70
2023-01-21T12:52:14.405Z,5.23
2023-01-21T12:54:50.627Z,5.70
2023-01-21T12:57:41.666Z,3.47
2023-01-21T13:00:23.100Z,5.80
2023-01-21T13:03:11.772Z,5.47
2023-01-21T13:05:45.037Z,6.23
2023-01-21T13:08:30.513Z,4.80
2023-01-21T13:11:13.287Z,5.47
2023-01-21T13:13:55.129Z,3.77
2023-01-21T13:16:26.297Z,5.40
2023-01-21T13:18:55.000Z,5.77
2023-01-21T13:21:36.765Z,4.87
2023-01-21T13:24:26.662Z,5.47
2023-01-21T13:27:18.954Z,5.13
2023-01-21T13:29:56.038Z,5.57
2023-01-21T13:32:28.537Z,6.17
2023-01-21T13:35:07.463Z,6.07
2023-01-21T13:37:44.860Z,5.80
2023-01-21T13:40:50.291Z,6.43
2023-01-21T13:43:44.789Z,5.70
2023-01-21T13:46:24.848Z,6.03
2023-01-21T13:49:32.111Z,6.40
2023-01-21T13:52:07.693Z,5.80
2023-01-21T13:55:04.435Z,5.43
2023-01-21T13:57:49.114Z,3.87
2023-01-21T14:00:24.918Z,6.53
2023-01-21T14:03:09.875Z,5.10
2023-01-21T14:05:46.838Z,7.27
2023-01-21T14:08:27.990Z,8.00
2023-01-21T14:10:59.092Z,5.43
2023-01-21T14:13:43.551Z,7.63
2023-01-21T14:16:35.439Z,5.67
2023-01-21T14:19:09.875Z,7.80
2023-01-21T14:22:10.543Z,7.60
2023-01-21T14:24:43.051Z,7.33
2023-01-21T14:27:48.180Z,6.60
2023-01-21T14:30:25.617Z,6.97
2023-01-21T14:32:52.230Z,3.57
2023-01-21T14:35:32.832Z,7.77
2023-01-21T14:38:25.509Z,7.40
2023-01-21T14:41:10.438Z,4.13
2023-01-21T14:43:37.862Z,6.53
2023-01-21T14:46:26.653Z,6.93
2023-01-21T14:49:08.230Z,6.30
2023-01-21T14:51:44.327Z,7.80
2023-01-21T14:54:18.042Z,6.67
2023-01-21T14:57:17.263Z,6.57
2023-01-21T14:59:46.160Z,6.00
2023-01-21T15:02:33.615Z,4.77
2023-01-21T15:05:22.567Z,4.70
2023-01-21T15:07:57.957Z,6.77
2023-01-21T15:10:33.849Z,3.63
2023-01-21T15:13:05.933Z,6.80
2023-01-21T15:15:57.969Z,6.60
2023-01-21T15:18:34.334Z,5.13
2023-01-21T15:21:01.393Z,6.20
2023-01-21T15:23:30.918Z,7.90
2023-01-21T15:26:11.119Z,6.03
2023-01-21T15:28:49.206Z,7.60
2023-01-21T15:31:21.898Z,6.97
2023-01-21T15:33:55.254Z,7.50
2023-01-21T15:36:34.599Z,13.00
2023-01-21T15:39:31.405Z,11.10
2023-01-21T15:42:25.464Z,8.10
2023-01-21T15:45:13.161Z,8.53
2023-01-21T15:48:02.912Z,7.17
2023-01-21T15:50:45.980Z,9.77
2023-01-21T15:53:41.699Z,7.97
2023-01-21T15:56:37.074Z,6.57
2023-01-21T15:59:35.704Z,8.10
2023-01-21T16:02:24.371Z,7.53
2023-01-21T16:05:17.356Z,8.90
2023-01-21T16:07:50.285Z,6.60
2023-01-21T16:11:07.429Z,7.57
2023-01-21T16:13:40.408Z,8.43
2023-01-21T16:16:18.472Z,9.10
2023-01-21T16:18:45.086Z,9.23
2023-01-21T16:21:12.276Z,9.47
2023-01-21T16:23:42.091Z,9.03
2023-01-21T16:26:08.765Z,9.40
2023-01-21T16:28:48.989Z,9.80
2023-01-21T16:31:15.835Z,9.27
2023-01-21T16:33:42.985Z,9.50
2023-01-21T16:36:14.031Z,10.30
2023-01-21T16:38:42.710Z,8.13
2023-01-21T16:41:23.804Z,8.60
2023-01-21T16:44:04.287Z,9.47
2023-01-21T16:46:36.230Z,8.43
2023-01-21T16:49:06.059Z,6.83
2023-01-21T16:51:39.607Z,8.87
2023-01-21T16:54:27.428Z,8.53
2023-01-21T16:56:56.204Z,8.53
2023-01-21T16:59:26.829Z,8.20
2023-01-21T17:01:55.242Z,10.90
2023-01-21T17:04:21.960Z,8.13
2023-01-21T17:06:48.956Z,9.83
2023-01-21T17:09:29.815Z,8.10
2023-01-21T17:11:58.221Z,8.73
2023-01-21T17:14:28.477Z,9.90
2023-01-21T17:16:57.402Z,9.77
2023-01-21T17:19:42.875Z,9.17
2023-01-21T17:22:19.250Z,9.20
2023-01-21T17:24:58.825Z,9.63
2023-01-21T17:27:26.521Z,8.27
2023-01-21T17:29:53.317Z,10.43
2023-01-21T17:32:32.577Z,8.80
2023-01-21T17:35:22.694Z,8.67
2023-01-21T17:37:57.001Z,9.73
2023-01-21T17:40:27.645Z,10.37
2023-01-21T17:42:54.817Z,10.33
2023-01-21T17:45:38.244Z,10.23
2023-01-21T17:48:10.298Z,10.50
2023-01-21T17:50:45.486Z,9.70
2023-01-21T17:53:27.873Z,10.70
2023-01-21T17:56:07.462Z,10.30
2023-01-21T17:58:46.077Z,10.33
2023-01-21T18:01:13.044Z,10.40
2023-01-21T18:03:39.770Z,9.43
2023-01-21T18:06:17.202Z,9.80
2023-01-21T18:08:44.260Z,7.63
2023-01-21T18:11:15.326Z,9.20
2023-01-21T18:13:42.252Z,9.50
2023-01-21T18:16:09.486Z,9.10
2023-01-21T18:18:38.084Z,9.83
2023-01-21T18:21:05.232Z,8.97
2023-01-21T18:23:32.334Z,9.83
2023-01-21T18:25:59.241Z,11.67
2023-01-21T18:28:28.379Z,11.90
2023-01-21T18:30:57.193Z,10.90
2023-01-21T18:33:24.789Z,11.70
2023-01-21T18:35:52.820Z,8.83
2023-01-21T18:38:26.839Z,10.97
2023-01-21T18:40:58.296Z,10.27
2023-01-21T18:43:25.807Z,13.77
2023-01-21T18:45:54.258Z,13.07
2023-01-21T18:48:27.462Z,16.17
2023-01-21T18:50:54.612Z,15.17
2023-01-21T18:53:21.362Z,12.67
2023-01-21T18:55:50.935Z,12.03
2023-01-21T18:58:17.746Z,11.47
2023-01-21T19:00:44.451Z,11.07
2023-01-21T19:03:15.156Z,10.10
2023-01-21T19:05:44.451Z,10.30
2023-01-21T19:08:15.078Z,11.40
2023-01-21T19:10:41.765Z,11.83
2023-01-21T19:13:11.301Z,10.37
2023-01-21T19:15:38.357Z,9.70
2023-01-21T19:18:15.725Z,10.70
2023-01-21T19:20:43.169Z,10.67
2023-01-21T19:23:17.255Z,10.23
2023-01-21T19:25:53.759Z,11.40
2023-01-21T19:28:23.405Z,10.77
2023-01-21T19:30:55.129Z,11.17
2023-01-21T19:33:23.351Z,10.47
2023-01-21T19:35:57.797Z,10.20
2023-01-21T19:38:26.267Z,11.13
2023-01-21T19:40:52.963Z,10.43
2023-01-21T19:43:23.255Z,10.53
2023-01-21T19:45:52.038Z,9.90
2023-01-21T19:48:21.346Z,10.77
2023-01-21T19:50:48.970Z,10.20
2023-01-21T19:53:18.434Z,11.10
2023-01-21T19:55:46.587Z,9.63
2023-01-21T19:58:26.161Z,13.97
2023-01-21T20:00:54.052Z,10.00
2023-01-21T20:03:25.795Z,10.53
2023-01-21T20:05:57.283Z,9.87
2023-01-21T20:08:26.405Z,10.20
2023-01-21T20:10:53.125Z,9.90
2023-01-21T20:13:20.165Z,11.07
2023-01-21T20:15:49.193Z,10.20
2023-01-21T20:18:27.230Z,9.87
2023-01-21T20:20:54.449Z,10.40
2023-01-21T20:23:25.546Z,10.47
2023-01-21T20:25:55.984Z,9.40
2023-01-21T20:28:24.710Z,10.10
2023-01-21T20:30:52.992Z,9.50
2023-01-21T20:33:23.781Z,10.10
2023-01-21T20:35:55.740Z,9.67
2023-01-21T20:38:28.237Z,9.60
2023-01-21T20:40:54.948Z,9.13
2023-01-21T20:43:21.628Z,9.67
2023-01-21T20:45:50.365Z,10.57
2023-01-21T20:48:28.224Z,13.67
2023-01-21T20:50:54.930Z,9.83
2023-01-21T20:53:21.820Z,9.20
2023-01-21T20:55:50.266Z,8.53
2023-01-21T20:58:18.980Z,9.77
2023-01-21T21:00:46.778Z,12.30
2023-01-21T21:03:17.821Z,11.43
2023-01-21T21:05:48.405Z,10.40
2023-01-21T21:08:17.419Z,10.50
2023-01-21T21:10:44.596Z,9.73
2023-01-21T21:13:12.630Z,9.93
2023-01-21T21:15:40.971Z,9.17
2023-01-21T21:18:10.492Z,9.03
2023-01-21T21:20:41.316Z,10.30
2023-01-21T21:23:11.940Z,9.40
2023-01-21T21:25:42.971Z,9.37
2023-01-21T21:28:14.645Z,10.17
2023-01-21T21:30:44.897Z,9.17
2023-01-21T21:33:20.337Z,8.83
2023-01-21T21:35:47.398Z,9.37
2023-01-21T21:38:21.708Z,9.63
2023-01-21T21:40:52.759Z,9.80
2023-01-21T21:43:35.480Z,9.43
2023-01-21T21:46:27.468Z,9.17
2023-01-21T21:48:54.415Z,9.37
2023-01-21T21:51:24.280Z,10.80
2023-01-21T21:53:51.336Z,9.70
2023-01-21T21:56:22.887Z,9.03
2023-01-21T21:58:51.072Z,8.43
2023-01-21T22:01:19.374Z,9.30
2023-01-21T22:03:46.734Z,8.93
2023-01-21T22:06:14.470Z,9.10
2023-01-21T22:08:42.823Z,9.63
2023-01-21T22:11:13.687Z,12.50
2023-01-21T22:13:41.938Z,8.53
2023-01-21T22:16:13.105Z,8.87
2023-01-21T22:18:40.206Z,8.63
2023-01-21T22:21:12.858Z,8.03
2023-01-21T22:23:39.669Z,8.63
2023-01-21T22:26:08.451Z,8.63
2023-01-21T22:28:36.180Z,8.27
2023-01-21T22:31:08.214Z,8.77
2023-01-21T22:33:35.770Z,9.60
2023-01-21T22:36:10.319Z,8.07
2023-01-21T22:38:40.319Z,9.23
2023-01-21T22:41:07.889Z,9.03
2023-01-21T22:43:34.985Z,8.10
2023-01-21T22:46:01.846Z,8.53
2023-01-21T22:48:30.575Z,9.27
2023-01-21T22:50:59.014Z,9.43
2023-01-21T22:53:26.848Z,7.87
2023-01-21T22:55:58.476Z,8.63
2023-01-21T22:58:26.525Z,9.00
2023-01-21T23:00:55.163Z,8.67
2023-01-21T23:03:26.204Z,8.27
2023-01-21T23:05:53.469Z,8.33
2023-01-21T23:08:20.755Z,9.10
2023-01-21T23:10:48.456Z,8.27
2023-01-21T23:13:16.364Z,7.20
2023-01-21T23:15:47.236Z,9.00
2023-01-21T23:18:15.155Z,7.60
2023-01-21T23:20:43.151Z,8.83
2023-01-21T23:23:11.565Z,8.63
2023-01-21T23:25:42.018Z,8.20
2023-01-21T23:28:08.878Z,8.43
2023-01-21T23:30:35.590Z,8.07
2023-01-21T23:33:05.260Z,8.30
2023-01-21T23:35:34.332Z,7.83
2023-01-21T23:38:02.162Z,8.00
2023-01-21T23:40:28.876Z,7.83
2023-01-21T23:42:55.536Z,8.33
2023-01-21T23:45:22.250Z,7.70
2023-01-21T23:47:49.567Z,7.67
2023-01-21T23:50:16.752Z,7.73
2023-01-21T23:52:43.713Z,7.60
2023-01-21T23:55:11.185Z,8.30
2023-01-21T23:57:37.856Z,8.20
